createdAt,value
2018-07-19T00:01:31.917Z,45.00
2018-07-19T00:06:29.565Z,45.90
2018-07-19T00:08:58.619Z,45.70
2018-07-19T00:11:28.816Z,45.60
2018-07-19T00:13:57.864Z,46.00
2018-07-19T00:16:26.891Z,46.50
2018-07-19T00:18:55.966Z,46.40
2018-07-19T00:21:24.997Z,46.40
2018-07-19T00:23:54.041Z,46.20
2018-07-19T00:26:23.065Z,46.40
2018-07-19T00:28:52.236Z,46.80
2018-07-19T00:31:21.295Z,47.10
2018-07-19T00:33:50.413Z,47.40
2018-07-19T00:36:19.379Z,46.90
2018-07-19T00:38:48.400Z,46.90
2018-07-19T00:41:17.431Z,47.00
2018-07-19T00:43:46.471Z,47.10
2018-07-19T00:46:15.484Z,47.30
2018-07-19T00:51:12.946Z,47.70
2018-07-19T00:53:41.825Z,48.30
2018-07-19T00:56:10.737Z,48.50
2018-07-19T00:58:39.637Z,48.80
2018-07-19T01:01:08.546Z,49.30
2018-07-19T01:03:37.466Z,49.20
2018-07-19T01:06:06.386Z,49.70
2018-07-19T01:08:35.265Z,50.70
2018-07-19T01:11:04.200Z,51.40
2018-07-19T01:18:30.254Z,51.40
2018-07-19T01:20:59.174Z,51.40
2018-07-19T01:23:28.085Z,51.40
2018-07-19T01:25:57.018Z,52.60
2018-07-19T01:28:25.910Z,53.30
2018-07-19T01:30:54.798Z,53.40
2018-07-19T01:33:23.845Z,53.80
2018-07-19T01:35:52.734Z,54.50
2018-07-19T01:38:21.603Z,54.60
2018-07-19T01:40:50.485Z,54.90
2018-07-19T01:43:19.373Z,55.20
2018-07-19T01:45:48.253Z,55.00
2018-07-19T01:48:17.185Z,55.10
2018-07-19T01:50:46.058Z,55.20
2018-07-19T01:53:14.938Z,56.10
2018-07-19T01:55:43.818Z,56.80
2018-07-19T01:58:12.714Z,57.20
2018-07-19T02:00:41.577Z,57.30
2018-07-19T02:03:10.445Z,58.00
2018-07-19T02:05:39.331Z,57.50
2018-07-19T02:08:08.225Z,57.70
2018-07-19T02:10:37.199Z,57.40
2018-07-19T02:13:06.183Z,57.10
2018-07-19T02:15:35.050Z,57.30
2018-07-19T02:18:03.961Z,57.60
2018-07-19T02:20:32.817Z,58.10
2018-07-19T02:23:01.699Z,58.80
2018-07-19T02:25:30.601Z,58.80
2018-07-19T02:27:59.466Z,58.80
2018-07-19T02:30:28.398Z,58.70
2018-07-19T02:35:25.796Z,58.70
2018-07-19T02:37:54.770Z,58.70
2018-07-19T02:40:23.694Z,58.70
2018-07-19T02:42:52.880Z,58.70
2018-07-19T02:45:21.778Z,58.70
2018-07-19T02:47:50.666Z,58.70
2018-07-19T02:50:19.562Z,58.80
2018-07-19T02:52:48.439Z,59.30
2018-07-19T02:55:17.330Z,58.80
2018-07-19T02:57:46.238Z,58.80
2018-07-19T03:02:43.647Z,58.80
2018-07-19T03:05:12.538Z,58.80
2018-07-19T03:07:41.464Z,58.80
2018-07-19T03:10:10.302Z,58.80
2018-07-19T03:12:39.218Z,58.40
2018-07-19T03:15:08.201Z,58.80
2018-07-19T03:17:37.097Z,58.80
2018-07-19T03:20:06.052Z,58.70
2018-07-19T03:22:35.448Z,59.20
2018-07-19T03:25:04.431Z,59.80
2018-07-19T03:27:33.317Z,60.10
2018-07-19T03:30:02.240Z,60.30
2018-07-19T03:32:31.101Z,61.70
2018-07-19T03:37:28.457Z,61.40
2018-07-19T03:39:57.347Z,62.00
2018-07-19T03:42:26.309Z,61.80
2018-07-19T03:44:55.230Z,62.30
2018-07-19T03:47:24.122Z,62.80
2018-07-19T03:49:53.007Z,63.10
2018-07-19T03:52:21.934Z,64.20
2018-07-19T03:54:50.894Z,64.60
2018-07-19T03:57:19.810Z,64.80
2018-07-19T03:59:48.690Z,64.80
2018-07-19T04:02:17.565Z,65.50
2018-07-19T04:04:46.662Z,65.60
2018-07-19T04:07:15.546Z,66.00
2018-07-19T04:09:44.457Z,66.20
2018-07-19T04:14:41.999Z,65.70
2018-07-19T04:17:11.116Z,65.30
2018-07-19T04:19:39.955Z,64.30
2018-07-19T04:22:08.867Z,64.10
2018-07-19T04:24:37.771Z,64.60
2018-07-19T04:27:06.650Z,65.00
2018-07-19T04:29:35.546Z,64.20
2018-07-19T04:32:04.446Z,63.50
2018-07-19T04:34:33.327Z,63.70
2018-07-19T04:37:02.586Z,63.50
2018-07-19T04:39:31.574Z,63.10
2018-07-19T04:42:00.479Z,63.40
2018-07-19T04:44:29.363Z,62.60
2018-07-19T04:46:58.794Z,62.10
2018-07-19T04:49:30.854Z,61.20
2018-07-19T04:52:00.186Z,60.20
2018-07-19T04:54:29.123Z,61.00
2018-07-19T04:56:58.162Z,60.90
2018-07-19T04:59:27.184Z,59.40
2018-07-19T05:01:56.076Z,59.40
2018-07-19T05:04:25.062Z,59.70
2018-07-19T05:06:53.986Z,59.40
2018-07-19T05:09:22.913Z,59.50
2018-07-19T05:11:51.840Z,58.60
2018-07-19T05:14:20.737Z,57.90
2018-07-19T05:16:49.670Z,56.40
2018-07-19T05:19:18.570Z,55.70
2018-07-19T05:21:47.458Z,55.60
2018-07-19T05:24:16.428Z,55.70
2018-07-19T05:26:45.303Z,55.20
2018-07-19T05:29:14.334Z,53.80
2018-07-19T05:31:43.229Z,52.50
2018-07-19T05:34:12.147Z,52.90
2018-07-19T05:36:41.114Z,53.00
2018-07-19T05:41:40.518Z,51.90
2018-07-19T05:44:09.630Z,51.90
2018-07-19T05:46:38.550Z,51.90
2018-07-19T05:49:07.714Z,51.80
2018-07-19T05:51:36.589Z,52.50
2018-07-19T05:54:05.651Z,52.00
2018-07-19T05:56:34.577Z,51.60
2018-07-19T05:59:03.534Z,50.20
2018-07-19T06:01:32.426Z,50.30
2018-07-19T06:04:01.313Z,50.50
2018-07-19T06:06:30.199Z,50.90
2018-07-19T06:08:59.073Z,50.30
2018-07-19T06:11:27.973Z,48.90
2018-07-19T06:13:56.851Z,49.10
2018-07-19T06:16:25.815Z,49.60
2018-07-19T06:18:54.722Z,48.60
2018-07-19T06:21:23.668Z,48.30
2018-07-19T06:23:52.658Z,49.10
2018-07-19T06:26:21.562Z,48.30
2018-07-19T06:28:50.517Z,47.90
2018-07-19T06:31:19.749Z,48.10
2018-07-19T06:33:48.642Z,47.00
2018-07-19T06:36:17.598Z,46.10
2018-07-19T06:38:46.486Z,46.20
2018-07-19T06:41:15.595Z,44.50
2018-07-19T06:43:44.618Z,44.50
2018-07-19T06:46:13.539Z,44.50
2018-07-19T06:48:42.422Z,44.70
2018-07-19T06:51:12.661Z,44.80
2018-07-19T06:53:41.690Z,43.90
2018-07-19T06:56:10.640Z,42.60
2018-07-19T06:58:39.527Z,42.70
2018-07-19T07:01:08.455Z,42.60
2018-07-19T07:06:06.511Z,42.70
2018-07-19T07:08:35.548Z,41.30
2018-07-19T07:11:04.525Z,41.80
2018-07-19T07:13:33.546Z,41.10
2018-07-19T07:16:02.495Z,41.40
2018-07-19T07:18:31.462Z,39.80
2018-07-19T07:21:00.390Z,39.70
2018-07-19T07:23:29.318Z,38.20
2018-07-19T07:25:58.238Z,37.50
2018-07-19T07:28:27.190Z,38.00
2018-07-19T07:30:56.114Z,36.90
2018-07-19T07:35:53.653Z,37.20
2018-07-19T07:38:22.601Z,37.00
2018-07-19T07:40:51.564Z,37.10
2018-07-19T07:43:20.490Z,37.20
2018-07-19T07:45:49.557Z,37.00
2018-07-19T07:48:18.442Z,35.40
2018-07-19T07:50:47.381Z,34.40
2018-07-19T07:53:16.330Z,34.40
2018-07-19T07:55:45.274Z,34.20
2018-07-19T07:58:14.368Z,32.80
2018-07-19T08:03:13.393Z,32.80
2018-07-19T08:05:42.382Z,33.50
2018-07-19T08:08:11.302Z,33.00
2018-07-19T08:10:40.211Z,33.20
2018-07-19T08:13:09.170Z,31.00
2018-07-19T08:15:38.109Z,32.30
2018-07-19T08:18:07.383Z,31.00
2018-07-19T08:20:36.301Z,29.80
2018-07-19T08:23:05.446Z,30.20
2018-07-19T08:25:34.465Z,29.20
2018-07-19T08:28:03.387Z,29.30
2018-07-19T08:30:32.262Z,29.30
2018-07-19T08:33:01.183Z,29.30
2018-07-19T08:35:30.082Z,28.80
2018-07-19T08:37:59.215Z,28.30
2018-07-19T08:40:28.136Z,28.40
2018-07-19T08:42:57.188Z,27.20
2018-07-19T08:45:26.291Z,27.30
2018-07-19T08:47:55.305Z,26.50
2018-07-19T08:50:24.356Z,27.60
2018-07-19T08:52:53.538Z,27.90
2018-07-19T08:55:22.977Z,26.70
2018-07-19T08:57:52.106Z,26.50
2018-07-19T09:00:21.515Z,27.10
2018-07-19T09:02:50.660Z,26.70
2018-07-19T09:05:19.911Z,26.80
2018-07-19T09:07:49.028Z,26.30
2018-07-19T09:10:18.898Z,27.60
2018-07-19T09:12:48.364Z,26.40
2018-07-19T09:15:20.047Z,26.40
2018-07-19T09:17:49.151Z,26.30
2018-07-19T09:20:18.389Z,26.60
2018-07-19T09:22:47.771Z,26.20
2018-07-19T09:25:17.038Z,26.20
2018-07-19T09:27:46.220Z,25.50
2018-07-19T09:30:15.431Z,25.50
2018-07-19T09:32:44.650Z,25.90
2018-07-19T09:37:43.302Z,26.70
2018-07-19T09:40:12.542Z,26.70
2018-07-19T09:45:12.161Z,26.30
2018-07-19T09:47:42.031Z,25.50
2018-07-19T09:50:18.759Z,25.20
2018-07-19T09:52:51.470Z,25.10
2018-07-19T09:55:31.587Z,23.70
2018-07-19T09:58:05.728Z,24.70
2018-07-19T10:00:41.522Z,24.20
2018-07-19T10:03:10.535Z,23.90
2018-07-19T10:05:40.463Z,24.30
2018-07-19T10:08:09.573Z,23.30
2018-07-19T10:10:38.922Z,23.70
2018-07-19T10:13:08.185Z,23.70
2018-07-19T10:15:37.250Z,23.30
2018-07-19T10:18:06.254Z,23.40
2018-07-19T10:23:04.654Z,23.10
2018-07-19T10:25:34.716Z,22.70
2018-07-19T10:28:03.738Z,23.50
2018-07-19T10:30:32.663Z,22.60
2018-07-19T10:33:01.626Z,22.90
2018-07-19T10:35:30.787Z,22.70
2018-07-19T10:37:59.887Z,23.20
2018-07-19T10:40:28.771Z,22.00
2018-07-19T10:42:57.772Z,21.80
2018-07-19T10:45:26.708Z,22.10
2018-07-19T10:47:55.711Z,21.30
2018-07-19T10:50:24.658Z,21.70
2018-07-19T10:52:53.607Z,21.00
2018-07-19T10:55:22.535Z,22.50
2018-07-19T10:57:51.519Z,20.30
2018-07-19T11:00:20.734Z,21.00
2018-07-19T11:02:49.714Z,20.80
2018-07-19T11:05:18.576Z,21.80
2018-07-19T11:07:47.518Z,20.40
2018-07-19T11:10:16.422Z,20.80
2018-07-19T11:12:45.294Z,21.10
2018-07-19T11:15:14.174Z,20.40
2018-07-19T11:17:43.168Z,21.50
2018-07-19T11:20:12.022Z,20.20
2018-07-19T11:22:40.944Z,20.40
2018-07-19T11:25:10.742Z,20.80
2018-07-19T11:27:39.606Z,20.40
2018-07-19T11:30:08.694Z,18.70
2018-07-19T11:32:37.593Z,18.10
2018-07-19T11:35:06.483Z,17.60
2018-07-19T11:37:35.436Z,19.20
2018-07-19T11:40:04.372Z,18.10
2018-07-19T11:42:33.254Z,17.50
2018-07-19T11:45:02.191Z,18.90
2018-07-19T11:47:31.070Z,17.10
2018-07-19T11:49:59.989Z,16.70
2018-07-19T11:52:28.841Z,17.10
2018-07-19T11:54:57.738Z,16.40
2018-07-19T11:57:26.636Z,17.20
2018-07-19T11:59:55.694Z,17.60
2018-07-19T12:02:24.631Z,17.10
2018-07-19T12:04:53.560Z,18.30
2018-07-19T12:07:22.494Z,17.30
2018-07-19T12:09:51.399Z,18.00
2018-07-19T12:12:20.462Z,17.40
2018-07-19T12:14:49.341Z,17.40
2018-07-19T12:17:18.215Z,17.10
2018-07-19T12:19:47.102Z,17.60
2018-07-19T12:22:16.151Z,17.60
2018-07-19T12:24:45.027Z,18.20
2018-07-19T12:27:13.915Z,17.90
2018-07-19T12:29:42.794Z,17.60
2018-07-19T12:32:11.720Z,15.20
2018-07-19T12:34:40.617Z,15.70
2018-07-19T12:37:09.567Z,15.50
2018-07-19T12:39:38.463Z,15.50
2018-07-19T12:42:07.472Z,17.80
2018-07-19T12:44:36.374Z,15.50
2018-07-19T12:47:05.357Z,15.40
2018-07-19T12:49:34.216Z,14.20
2018-07-19T12:52:03.162Z,15.40
2018-07-19T12:54:32.059Z,14.90
2018-07-19T12:57:01.090Z,14.80
2018-07-19T13:01:58.548Z,15.30
2018-07-19T13:04:27.569Z,14.20
2018-07-19T13:06:56.450Z,13.70
2018-07-19T13:09:25.370Z,15.00
2018-07-19T13:11:54.865Z,14.40
2018-07-19T13:16:53.174Z,14.80
2018-07-19T13:19:22.139Z,13.20
2018-07-19T13:21:51.133Z,13.00
2018-07-19T13:24:20.305Z,13.40
2018-07-19T13:26:49.243Z,13.00
2018-07-19T13:29:18.119Z,12.50
2018-07-19T13:34:15.499Z,12.30
2018-07-19T13:36:44.543Z,13.10
2018-07-19T13:39:13.374Z,12.00
2018-07-19T13:41:42.332Z,11.90
2018-07-19T13:44:11.217Z,12.00
2018-07-19T13:46:40.094Z,11.90
2018-07-19T13:49:08.979Z,11.30
2018-07-19T13:51:37.858Z,12.00
2018-07-19T13:54:11.842Z,12.30
2018-07-19T13:56:40.931Z,12.50
2018-07-19T13:59:09.822Z,12.40
2018-07-19T14:01:39.037Z,12.50
2018-07-19T14:04:08.266Z,11.60
2018-07-19T14:06:37.229Z,11.40
2018-07-19T14:09:08.798Z,11.60
2018-07-19T14:11:37.730Z,11.80
2018-07-19T14:14:06.746Z,10.40
2018-07-19T14:16:35.636Z,11.20
2018-07-19T14:19:04.584Z,11.20
2018-07-19T14:21:33.663Z,10.30
2018-07-19T14:24:02.539Z,10.20
2018-07-19T14:26:31.738Z,11.30
2018-07-19T14:29:00.668Z,9.60
2018-07-19T14:31:29.506Z,9.80
2018-07-19T14:36:36.678Z,10.20
2018-07-19T14:39:09.778Z,9.00
2018-07-19T14:41:38.807Z,11.40
2018-07-19T14:44:08.137Z,9.50
2018-07-19T14:46:36.998Z,9.60
2018-07-19T14:49:05.983Z,10.70
2018-07-19T14:54:03.419Z,10.10
2018-07-19T14:56:32.514Z,10.90
2018-07-19T14:59:01.439Z,11.20
2018-07-19T15:01:30.353Z,11.10
2018-07-19T15:03:59.343Z,10.60
2018-07-19T15:06:28.238Z,10.70
2018-07-19T15:08:57.197Z,10.20
2018-07-19T15:11:26.110Z,10.40
2018-07-19T15:13:55.026Z,9.00
2018-07-19T15:16:23.917Z,9.20
2018-07-19T15:18:53.010Z,9.40
2018-07-19T15:21:21.952Z,9.60
2018-07-19T15:23:50.904Z,9.90
2018-07-19T15:26:19.782Z,8.50
2018-07-19T15:28:48.686Z,8.60
2018-07-19T15:31:17.578Z,8.10
2018-07-19T15:33:46.596Z,8.10
2018-07-19T15:36:15.555Z,8.10
2018-07-19T15:38:44.452Z,8.20
2018-07-19T15:41:13.330Z,8.20
2018-07-19T15:43:42.226Z,8.10
2018-07-19T15:46:11.115Z,8.50
2018-07-19T15:48:39.991Z,8.50
2018-07-19T15:53:37.339Z,8.50
2018-07-19T15:56:06.255Z,8.20
2018-07-19T15:58:35.227Z,8.40
2018-07-19T16:01:04.129Z,8.20
2018-07-19T16:03:33.030Z,7.30
2018-07-19T16:06:01.922Z,7.40
2018-07-19T16:08:30.802Z,7.30
2018-07-19T16:10:59.666Z,7.10
2018-07-19T16:13:28.526Z,6.70
2018-07-19T16:15:57.390Z,8.00
2018-07-19T16:18:26.294Z,8.10
2018-07-19T16:20:55.259Z,7.50
2018-07-19T16:23:24.206Z,7.30
2018-07-19T16:25:53.177Z,7.10
2018-07-19T16:28:22.209Z,7.40
2018-07-19T16:30:51.079Z,7.50
2018-07-19T16:35:56.202Z,6.70
2018-07-19T16:38:25.319Z,6.40
2018-07-19T16:40:54.332Z,6.00
2018-07-19T16:43:23.370Z,6.70
2018-07-19T16:45:52.506Z,6.50
2018-07-19T16:48:21.950Z,6.00
2018-07-19T16:50:50.840Z,6.20
2018-07-19T16:53:19.754Z,6.00
2018-07-19T16:55:48.622Z,6.40
2018-07-19T16:58:17.654Z,5.70
2018-07-19T17:00:46.544Z,5.50
2018-07-19T17:03:15.446Z,5.50
2018-07-19T17:05:44.339Z,5.60
2018-07-19T17:08:13.239Z,6.00
2018-07-19T17:10:42.123Z,6.00
2018-07-19T17:13:11.265Z,6.40
2018-07-19T17:15:40.264Z,6.00
2018-07-19T17:18:09.386Z,6.20
2018-07-19T17:20:38.388Z,6.80
2018-07-19T17:23:07.498Z,5.70
2018-07-19T17:25:36.607Z,7.00
2018-07-19T17:28:05.642Z,6.60
2018-07-19T17:30:34.542Z,6.80
2018-07-19T17:33:03.509Z,6.30
2018-07-19T17:35:32.414Z,6.80
2018-07-19T17:38:01.309Z,6.80
2018-07-19T17:40:30.602Z,6.10
2018-07-19T17:42:59.528Z,6.20
2018-07-19T17:45:28.466Z,6.40
2018-07-19T17:47:57.429Z,7.40
2018-07-19T17:50:26.484Z,8.30
2018-07-19T17:52:55.914Z,8.40
2018-07-19T17:55:25.609Z,7.40
2018-07-19T17:57:54.682Z,7.00
2018-07-19T18:00:23.606Z,7.80
2018-07-19T18:02:53.272Z,7.70
2018-07-19T18:05:22.258Z,9.10
2018-07-19T18:07:51.356Z,8.60
2018-07-19T18:10:20.488Z,9.40
2018-07-19T18:12:49.506Z,9.90
2018-07-19T18:15:18.433Z,10.70
2018-07-19T18:17:47.318Z,11.80
2018-07-19T18:20:16.298Z,11.90
2018-07-19T18:22:45.155Z,12.20
2018-07-19T18:25:14.193Z,12.70
2018-07-19T18:27:43.060Z,12.80
2018-07-19T18:30:11.957Z,13.50
2018-07-19T18:32:40.850Z,13.40
2018-07-19T18:35:09.738Z,14.20
2018-07-19T18:37:38.609Z,13.70
2018-07-19T18:40:07.673Z,13.30
2018-07-19T18:42:36.534Z,14.30
2018-07-19T18:45:05.463Z,13.90
2018-07-19T18:47:34.326Z,14.60
2018-07-19T18:50:03.285Z,14.50
2018-07-19T18:55:00.682Z,15.40
2018-07-19T18:57:29.578Z,15.90
2018-07-19T18:59:58.522Z,16.40
2018-07-19T19:02:27.432Z,16.10
2018-07-19T19:04:56.318Z,16.30
2018-07-19T19:07:25.231Z,16.70
2018-07-19T19:09:54.212Z,17.30
2018-07-19T19:12:23.172Z,17.60
2018-07-19T19:14:52.114Z,17.60
2018-07-19T19:17:21.076Z,17.90
2018-07-19T19:19:50.006Z,18.70
2018-07-19T19:22:18.898Z,19.10
2018-07-19T19:24:47.798Z,19.00
2018-07-19T19:27:16.678Z,19.00
2018-07-19T19:29:45.565Z,18.90
2018-07-19T19:32:14.450Z,19.50
2018-07-19T19:34:43.368Z,20.40
2018-07-19T19:37:12.286Z,20.70
2018-07-19T19:39:41.208Z,21.00
2018-07-19T19:42:10.095Z,20.80
2018-07-19T19:44:38.990Z,21.30
2018-07-19T19:47:07.889Z,21.10
2018-07-19T19:49:36.771Z,21.80
2018-07-19T19:52:05.704Z,21.90
2018-07-19T19:54:34.634Z,21.90
2018-07-19T19:57:03.522Z,22.30
2018-07-19T19:59:32.406Z,22.50
2018-07-19T20:04:30.122Z,22.80
2018-07-19T20:06:59.018Z,22.90
2018-07-19T20:11:56.722Z,23.90
2018-07-19T20:14:25.863Z,24.50
2018-07-19T20:16:54.843Z,24.90
2018-07-19T20:19:23.781Z,24.80
2018-07-19T20:21:52.771Z,24.80
2018-07-19T20:24:21.826Z,24.90
2018-07-19T20:26:50.783Z,25.30
2018-07-19T20:29:19.710Z,25.50
2018-07-19T20:31:48.595Z,25.80
2018-07-19T20:34:20.448Z,26.40
2018-07-19T20:36:46.467Z,26.60
2018-07-19T20:39:15.390Z,26.70
2018-07-19T20:41:44.447Z,26.80
2018-07-19T20:44:13.418Z,27.20
2018-07-19T20:46:42.354Z,27.60
2018-07-19T20:49:11.318Z,28.50
2018-07-19T20:51:40.278Z,27.90
2018-07-19T20:54:09.399Z,28.50
2018-07-19T20:56:38.298Z,28.80
2018-07-19T20:59:07.379Z,28.90
2018-07-19T21:01:36.368Z,29.20
2018-07-19T21:04:05.312Z,29.30
2018-07-19T21:06:34.283Z,29.30
2018-07-19T21:09:03.571Z,29.40
2018-07-19T21:11:32.618Z,29.40
2018-07-19T21:14:01.607Z,30.00
2018-07-19T21:16:30.510Z,30.70
2018-07-19T21:18:59.499Z,31.00
2018-07-19T21:21:28.446Z,31.30
2018-07-19T21:23:57.386Z,31.60
2018-07-19T21:26:26.338Z,32.80
2018-07-19T21:28:55.328Z,32.80
2018-07-19T21:31:24.547Z,32.80
2018-07-19T21:33:53.454Z,32.70
2018-07-19T21:36:22.413Z,33.70
2018-07-19T21:38:51.386Z,34.30
2018-07-19T21:41:20.314Z,34.50
2018-07-19T21:43:49.188Z,34.80
2018-07-19T21:46:18.278Z,35.30
2018-07-19T21:48:47.185Z,35.60
2018-07-19T21:51:16.091Z,35.20
2018-07-19T21:53:44.994Z,35.20
2018-07-19T21:56:13.904Z,35.50
2018-07-19T21:58:42.827Z,36.30
2018-07-19T22:01:12.450Z,36.10
2018-07-19T22:03:41.393Z,36.40
2018-07-19T22:06:10.556Z,36.20
2018-07-19T22:08:39.523Z,36.50
2018-07-19T22:11:08.433Z,37.00
2018-07-19T22:13:37.326Z,36.90
2018-07-19T22:16:07.973Z,37.40
2018-07-19T22:18:36.936Z,38.00
2018-07-19T22:21:09.185Z,38.40
2018-07-19T22:23:38.266Z,39.00
2018-07-19T22:26:07.218Z,39.20
2018-07-19T22:31:19.781Z,40.10
2018-07-19T22:33:49.348Z,40.10
2018-07-19T22:36:22.539Z,40.80
2018-07-19T22:38:51.596Z,40.90
2018-07-19T22:41:20.538Z,41.30
2018-07-19T22:43:49.439Z,41.30
2018-07-19T22:46:18.455Z,41.00
2018-07-19T22:48:47.592Z,41.20
2018-07-19T22:51:16.702Z,41.20
2018-07-19T22:53:45.598Z,41.60
2018-07-19T22:56:15.026Z,40.90
2018-07-19T22:58:45.190Z,41.30
2018-07-19T23:01:14.063Z,42.90
2018-07-19T23:03:49.204Z,42.30
2018-07-19T23:06:18.465Z,42.50
2018-07-19T23:08:47.814Z,42.60
2018-07-19T23:11:16.738Z,42.70
2018-07-19T23:13:46.143Z,42.60
2018-07-19T23:16:15.347Z,42.80
2018-07-19T23:18:44.565Z,42.50
2018-07-19T23:21:13.477Z,42.60
2018-07-19T23:23:42.417Z,42.60
2018-07-19T23:26:11.306Z,42.50
2018-07-19T23:28:40.218Z,43.00
2018-07-19T23:31:09.122Z,42.40
2018-07-19T23:33:38.046Z,42.90
2018-07-19T23:36:14.094Z,42.80
2018-07-19T23:38:46.682Z,42.70
2018-07-19T23:41:19.790Z,43.80
2018-07-19T23:43:52.390Z,43.70
2018-07-19T23:46:25.593Z,44.10
2018-07-19T23:48:55.835Z,44.60
2018-07-19T23:51:24.842Z,44.30
2018-07-19T23:53:53.885Z,44.20
2018-07-19T23:56:22.826Z,44.40
2018-07-19T23:58:51.806Z,45.00
